Time;durP1;ratioP1;P1;durP2;ratioP2;P2;SDS_P1;SDS_P2;PMS_P1;PMS_P2;Temp;Humidity;BMP_temperature;BMP_pressure;BME280_temperature;BME280_humidity;BME280_pressure;Samples;Min_cycle;Max_cycle;Signal;HPM_P1;HPM_P2
2023/12/12 00:00:29;;;;;;;2.95;0.80;;;;;;;-5.01;77.36;99795.91;4948423;28;20475;-62
2023/12/12 00:02:56;;;;;;;1.77;0.70;;;;;;;-5.20;76.33;99761.56;4938913;29;20070;-62
2023/12/12 00:05:22;;;;;;;3.42;1.08;;;;;;;-5.08;76.71;99791.50;4937188;29;20054;-63
2023/12/12 00:07:48;;;;;;;2.20;1.10;;;;;;;-5.13;76.40;99799.78;4935798;29;20039;-62
2023/12/12 00:10:14;;;;;;;2.47;1.02;;;;;;;-5.18;76.84;99793.72;4948136;29;20051;-62
2023/12/12 00:12:40;;;;;;;3.95;1.13;;;;;;;-5.20;76.38;99795.38;4916736;29;20040;-61
2023/12/12 00:15:06;;;;;;;1.80;0.70;;;;;;;-5.16;77.22;99788.72;4949415;28;20042;-63
2023/12/12 00:17:32;;;;;;;1.40;0.73;;;;;;;-5.13;76.70;99783.75;4949210;29;20094;-62
2023/12/12 00:19:58;;;;;;;4.53;1.30;;;;;;;-5.10;76.34;99771.16;4949871;29;20059;-62
2023/12/12 00:22:24;;;;;;;2.30;0.82;;;;;;;-5.03;76.29;99765.47;4948371;29;20039;-62
2023/12/12 00:24:50;;;;;;;2.83;1.02;;;;;;;-4.99;76.19;99764.72;4935235;29;20055;-61
2023/12/12 00:27:16;;;;;;;2.28;0.98;;;;;;;-5.03;76.18;99783.22;4915554;29;20042;-62
2023/12/12 00:29:41;;;;;;;2.40;1.00;;;;;;;-5.04;76.25;99763.75;4950077;28;20516;-62
2023/12/12 00:32:07;;;;;;;2.05;0.88;;;;;;;-5.06;76.07;99765.34;4932163;29;20070;-63
2023/12/12 00:34:36;;;;;;;1.95;1.00;;;;;;;-5.15;76.31;99733.03;4949026;28;20554;-64
2023/12/12 00:37:03;;;;;;;1.92;0.90;;;;;;;-5.08;76.16;99761.94;4949311;28;20089;-62
2023/12/12 00:39:29;;;;;;;4.88;1.10;;;;;;;-5.28;76.19;99719.94;4947661;29;20050;-63
2023/12/12 00:41:54;;;;;;;3.38;1.00;;;;;;;-5.39;75.60;99716.25;4949406;29;20051;-64
2023/12/12 00:44:20;;;;;;;5.13;1.23;;;;;;;-5.26;75.66;99754.66;4930499;29;20472;-62
2023/12/12 00:46:46;;;;;;;1.85;0.90;;;;;;;-5.23;76.15;99744.59;4947804;29;20074;-63
2023/12/12 00:49:12;;;;;;;3.95;0.85;;;;;;;-5.29;75.66;99753.72;4948172;29;20046;-61
2023/12/12 00:51:38;;;;;;;1.73;0.80;;;;;;;-5.26;75.89;99764.78;4947820;29;20048;-62
2023/12/12 00:54:04;;;;;;;3.53;1.38;;;;;;;-5.14;75.42;99755.03;4933592;29;20046;-64
2023/12/12 00:56:30;;;;;;;2.10;0.90;;;;;;;-5.59;75.16;99695.38;4948964;28;20524;-63
2023/12/12 00:58:56;;;;;;;3.88;1.13;;;;;;;-5.21;75.12;99763.25;4947670;29;20046;-63
2023/12/12 01:01:22;;;;;;;1.42;0.82;;;;;;;-5.24;74.61;99754.69;4936612;29;20126;-64
2023/12/12 01:03:48;;;;;;;3.10;1.00;;;;;;;-5.26;74.77;99753.78;4946865;29;20050;-62
2023/12/12 01:06:26;;;;;;;1.35;0.60;;;;;;;-5.44;74.47;99753.25;4945768;29;20039;-62
2023/12/12 01:08:52;;;;;;;9.20;1.17;;;;;;;-5.31;74.60;99756.19;4945079;29;20050;-61
2023/12/12 01:11:18;;;;;;;0.88;0.60;;;;;;;-5.29;74.87;99773.97;4931202;29;20086;-63
2023/12/12 01:13:45;;;;;;;2.25;1.15;;;;;;;-5.28;74.76;99766.41;4932670;29;20058;-61
2023/12/12 01:16:11;;;;;;;1.02;0.60;;;;;;;-5.26;74.69;99761.38;4947933;28;20755;-61
2023/12/12 01:18:37;;;;;;;2.42;0.73;;;;;;;-5.22;74.39;99761.53;4933382;29;20047;-60
2023/12/12 01:21:04;;;;;;;1.30;0.60;;;;;;;-5.24;74.70;99747.97;4947756;29;20503;-63
2023/12/12 01:23:53;;;;;;;1.75;0.60;;;;;;;-5.20;74.74;99751.44;4936542;29;20107;-61
2023/12/12 01:26:20;;;;;;;;;;;;;;;-5.13;75.17;99755.88;4910045;29;20051;-62
2023/12/12 01:28:46;;;;;;;1.27;0.63;;;;;;;-5.10;74.75;99750.88;4927910;29;19925;-61
2023/12/12 01:31:14;;;;;;;2.15;0.90;;;;;;;-5.21;74.45;99750.56;4935429;29;20851;-62
2023/12/12 01:33:39;;;;;;;1.83;0.70;;;;;;;-5.24;74.05;99764.84;4932271;29;20063;-63
2023/12/12 01:36:06;;;;;;;1.35;0.73;;;;;;;-5.26;74.47;99759.72;4931458;29;20091;-62
2023/12/12 01:38:32;;;;;;;6.85;1.45;;;;;;;-5.52;74.51;99709.97;4934043;29;20483;-61
2023/12/12 01:40:58;;;;;;;2.22;1.15;;;;;;;-5.24;74.76;99742.91;4934876;29;20079;-62
2023/12/12 01:43:25;;;;;;;3.72;1.05;;;;;;;-5.15;74.71;99750.75;4919676;29;20059;-62
2023/12/12 01:45:51;;;;;;;4.15;1.13;;;;;;;-5.16;74.87;99753.25;4945624;29;20058;-63
2023/12/12 01:48:17;;;;;;;3.22;1.20;;;;;;;-5.09;74.18;99762.75;4934060;29;20090;-61
2023/12/12 01:50:43;;;;;;;2.47;0.90;;;;;;;-5.13;73.90;99760.94;4935181;29;20055;-62
2023/12/12 01:53:09;;;;;;;2.80;1.00;;;;;;;-5.20;73.84;99743.84;4919217;29;20039;-64
2023/12/12 01:55:36;;;;;;;1.23;0.65;;;;;;;-5.41;73.87;99711.13;4951588;29;20039;-61
2023/12/12 01:58:02;;;;;;;2.25;0.95;;;;;;;-5.22;73.84;99727.72;4938563;29;20047;-62
2023/12/12 02:00:29;;;;;;;2.58;1.20;;;;;;;-5.31;73.86;99723.25;4935006;29;20067;-62
2023/12/12 02:02:54;;;;;;;3.00;0.85;;;;;;;-5.16;73.35;99760.84;4929675;29;20047;-62
2023/12/12 02:05:21;;;;;;;1.05;0.50;;;;;;;-5.12;74.21;99767.72;4950618;28;20043;-61
2023/12/12 02:07:48;;;;;;;2.92;0.95;;;;;;;-5.56;73.56;99692.97;4917465;29;20051;-62
2023/12/12 02:10:14;;;;;;;2.63;0.70;;;;;;;-5.26;73.98;99743.66;4926642;29;20102;-61
2023/12/12 02:12:40;;;;;;;2.20;0.90;;;;;;;-5.18;74.58;99754.88;4917037;29;20482;-62
2023/12/12 02:15:07;;;;;;;2.40;0.80;;;;;;;-5.30;74.52;99744.38;4936810;29;20116;-62
2023/12/12 02:17:33;;;;;;;3.40;1.52;;;;;;;-5.24;74.97;99737.84;4918479;29;20138;-63
2023/12/12 02:19:59;;;;;;;1.63;0.88;;;;;;;-5.10;75.16;99738.22;4950168;29;20035;-63
2023/12/12 02:22:26;;;;;;;3.13;1.05;;;;;;;-5.08;74.96;99738.28;4922704;29;20570;-63
2023/12/12 02:24:51;;;;;;;3.42;1.13;;;;;;;-5.13;74.70;99738.13;4950270;29;20039;-62
2023/12/12 02:27:18;;;;;;;3.33;1.48;;;;;;;-5.19;74.56;99732.91;4937189;29;20054;-63
2023/12/12 02:29:44;;;;;;;1.38;0.82;;;;;;;-5.22;74.71;99740.38;4950248;29;20046;-63
2023/12/12 02:32:10;;;;;;;1.25;0.68;;;;;;;-5.41;74.61;99702.66;4932643;29;20976;-62
2023/12/12 02:34:36;;;;;;;2.78;1.10;;;;;;;-5.23;75.08;99749.66;4936244;29;20516;-62
2023/12/12 02:37:02;;;;;;;3.42;0.90;;;;;;;-5.27;75.37;99747.00;4935231;29;20043;-62
2023/12/12 02:39:28;;;;;;;1.48;0.70;;;;;;;-5.38;75.27;99717.94;4940432;28;20095;-63
2023/12/12 02:41:53;;;;;;;2.20;1.45;;;;;;;-5.45;75.22;99716.06;4951543;29;20567;-62
2023/12/12 02:44:19;;;;;;;1.70;0.73;;;;;;;-5.29;75.36;99751.19;4950243;29;20134;-62
2023/12/12 02:46:45;;;;;;;1.38;0.80;;;;;;;-5.72;75.81;99688.25;4950175;29;20043;-63
2023/12/12 02:49:11;;;;;;;1.88;0.80;;;;;;;-5.40;76.63;99730.59;4938542;29;20094;-63
2023/12/12 02:51:37;;;;;;;4.05;1.38;;;;;;;-5.33;76.49;99736.69;4935370;29;20038;-62
2023/12/12 02:54:03;;;;;;;1.90;1.38;;;;;;;-5.30;76.21;99737.66;4934985;29;20050;-64
2023/12/12 02:56:32;;;;;;;3.72;1.65;;;;;;;-5.34;76.86;99742.59;4937766;29;20064;-63
2023/12/12 02:58:58;;;;;;;;;;;;;;;-5.34;76.95;99750.19;4938114;29;20043;-64
2023/12/12 03:01:24;;;;;;;4.43;1.35;;;;;;;-5.37;77.48;99761.06;4949734;28;20413;-62
2023/12/12 03:03:50;;;;;;;0.90;0.75;;;;;;;-5.37;77.69;99738.28;4918464;29;20512;-64
2023/12/12 03:06:17;;;;;;;1.60;0.95;;;;;;;-5.33;77.66;99745.13;4935546;29;20050;-64
2023/12/12 03:08:42;;;;;;;2.80;1.00;;;;;;;-5.33;78.02;99736.69;4949743;29;20058;-60
2023/12/12 03:11:08;;;;;;;3.95;1.10;;;;;;;-5.35;77.70;99745.91;4923189;29;20051;-63
2023/12/12 03:13:34;;;;;;;3.70;1.05;;;;;;;-5.35;78.26;99736.66;4948421;29;20122;-62
2023/12/12 03:16:00;;;;;;;3.30;1.20;;;;;;;-5.29;78.25;99736.84;4932635;29;20043;-64
2023/12/12 03:18:26;;;;;;;5.88;1.15;;;;;;;-5.28;78.08;99733.47;4949451;29;20054;-63
2023/12/12 03:20:51;;;;;;;6.50;1.35;;;;;;;-5.22;78.12;99726.03;4924121;29;20050;-63
2023/12/12 03:23:17;;;;;;;2.60;1.27;;;;;;;-5.38;78.19;99687.56;4937190;29;20047;-64
2023/12/12 03:25:43;;;;;;;2.75;1.35;;;;;;;-5.16;78.05;99713.56;4949872;29;20047;-63
2023/12/12 03:28:09;;;;;;;2.15;0.93;;;;;;;-5.13;78.06;99725.47;4949263;29;20515;-63
2023/12/12 03:30:35;;;;;;;3.70;1.30;;;;;;;-5.45;77.91;99673.88;4949444;29;20094;-62
2023/12/12 03:33:00;;;;;;;1.85;1.02;;;;;;;-5.25;77.80;99708.25;4949316;29;20035;-62
2023/12/12 03:35:27;;;;;;;1.63;0.80;;;;;;;-5.18;78.60;99711.81;4929597;29;20043;-62
2023/12/12 03:37:53;;;;;;;2.25;0.98;;;;;;;-5.18;78.01;99706.75;4941156;29;20129;-63
2023/12/12 03:40:18;;;;;;;4.70;1.20;;;;;;;-5.14;78.32;99699.25;4950023;29;20098;-63
2023/12/12 03:42:44;;;;;;;1.92;1.10;;;;;;;-5.07;78.37;99707.00;4925749;29;20059;-63
2023/12/12 03:45:10;;;;;;;2.33;1.20;;;;;;;-5.12;78.42;99689.16;4950054;28;20543;-62
2023/12/12 03:47:36;;;;;;;2.20;1.25;;;;;;;-5.14;77.78;99684.06;4922097;29;20047;-61
2023/12/12 03:50:03;;;;;;;4.28;1.30;;;;;;;-5.05;78.22;99685.13;4949643;29;20522;-64
2023/12/12 03:52:31;;;;;;;2.03;1.08;;;;;;;-4.89;77.90;99687.25;4936901;29;20526;-64
2023/12/12 03:54:57;;;;;;;1.88;1.00;;;;;;;-4.82;77.93;99694.22;4938033;29;20039;-66
2023/12/12 03:57:22;;;;;;;6.22;1.50;;;;;;;-4.79;77.66;99694.28;4935580;29;20035;-64
2023/12/12 03:59:48;;;;;;;4.22;1.25;;;;;;;-4.88;77.09;99692.38;4950510;29;20514;-63
2023/12/12 04:02:14;;;;;;;4.97;1.13;;;;;;;-4.95;77.38;99700.63;4948274;29;20464;-63
2023/12/12 04:04:40;;;;;;;5.10;1.30;;;;;;;-4.98;77.71;99692.94;4933115;29;20048;-62
2023/12/12 04:07:06;;;;;;;3.38;1.15;;;;;;;-5.00;77.43;99683.56;4949923;28;20048;-63
2023/12/12 04:09:32;;;;;;;3.30;2.15;;;;;;;-5.26;77.54;99652.44;4935480;29;20054;-62
2023/12/12 04:11:57;;;;;;;3.00;1.52;;;;;;;-5.00;78.09;99686.97;4936951;29;20047;-64
2023/12/12 04:14:23;;;;;;;5.28;1.70;;;;;;;-5.04;77.77;99686.84;4948987;29;20051;-63
2023/12/12 04:16:49;;;;;;;3.83;1.60;;;;;;;-5.23;77.72;99643.25;4936590;29;20046;-62
2023/12/12 04:19:15;;;;;;;6.25;1.50;;;;;;;-4.98;77.70;99690.41;4931147;29;20540;-63
2023/12/12 04:21:44;;;;;;;5.00;2.17;;;;;;;-5.11;77.98;99657.94;4923099;29;20043;-62
2023/12/12 04:24:09;;;;;;;4.63;2.00;;;;;;;-4.86;78.20;99690.72;4939570;29;20530;-62
2023/12/12 04:26:35;;;;;;;4.13;1.52;;;;;;;-4.84;78.89;99681.50;4948258;29;20038;-63
2023/12/12 04:29:03;;;;;;;6.18;2.35;;;;;;;-4.92;79.03;99650.00;4936016;29;20139;-64
2023/12/12 04:31:29;;;;;;;14.75;1.58;;;;;;;-4.80;78.96;99688.34;4949101;29;20047;-62
2023/12/12 04:33:55;;;;;;;5.82;1.98;;;;;;;-5.14;79.33;99640.13;4936530;29;20423;-61
2023/12/12 04:36:21;;;;;;;3.45;1.48;;;;;;;-5.00;79.18;99646.41;4915921;29;20175;-63
2023/12/12 04:38:47;;;;;;;6.78;1.70;;;;;;;-4.77;79.74;99678.31;4948167;29;20043;-62
2023/12/12 04:41:13;;;;;;;6.03;1.60;;;;;;;-4.67;79.73;99687.00;4931055;29;20426;-63
2023/12/12 04:43:39;;;;;;;4.03;1.90;;;;;;;-4.72;79.30;99678.44;4948059;29;20043;-63
2023/12/12 04:46:05;;;;;;;5.80;1.88;;;;;;;-4.96;79.54;99632.13;4947739;29;20524;-63
2023/12/12 04:48:32;;;;;;;3.60;1.30;;;;;;;-4.55;79.33;99671.25;4947841;29;20046;-63
2023/12/12 04:51:00;;;;;;;5.72;1.80;;;;;;;-4.54;79.24;99673.81;4950452;28;20137;-62
2023/12/12 04:53:26;;;;;;;8.70;1.50;;;;;;;-4.41;79.12;99696.16;4948136;28;20484;-63
2023/12/12 04:55:51;;;;;;;4.18;1.50;;;;;;;-4.50;78.59;99677.31;4947751;29;20130;-63
2023/12/12 04:58:17;;;;;;;4.43;1.40;;;;;;;-4.53;78.58;99685.69;4933969;29;20058;-63
2023/12/12 05:00:43;;;;;;;3.28;1.33;;;;;;;-4.81;79.21;99646.06;4947619;29;20053;-63
2023/12/12 05:03:09;;;;;;;2.88;1.52;;;;;;;-4.60;79.60;99671.13;4934637;29;20147;-63
2023/12/12 05:05:35;;;;;;;3.60;1.42;;;;;;;-4.57;79.05;99686.44;4948013;29;20042;-62
2023/12/12 05:08:01;;;;;;;4.85;1.50;;;;;;;-4.60;78.68;99685.47;4947520;29;20090;-65
2023/12/12 05:10:27;;;;;;;5.93;1.90;;;;;;;-4.52;78.40;99676.41;4940009;29;20050;-64
2023/12/12 05:12:53;;;;;;;3.75;1.10;;;;;;;-4.49;78.29;99684.06;4935860;29;20047;-63
2023/12/12 05:15:19;;;;;;;1.88;1.00;;;;;;;-4.68;77.67;99670.06;4948701;29;20594;-62
2023/12/12 05:17:44;;;;;;;7.82;1.95;;;;;;;-4.58;77.29;99683.84;4917552;29;20044;-61
2023/12/12 05:20:12;;;;;;;3.05;1.35;;;;;;;-4.67;77.23;99692.09;4943774;29;20994;-64
2023/12/12 05:22:38;;;;;;;5.53;1.40;;;;;;;-4.75;77.10;99693.53;4926622;29;20135;-65
2023/12/12 05:25:05;;;;;;;3.08;1.65;;;;;;;-4.75;77.05;99681.72;4946997;28;20042;-62
2023/12/12 05:27:31;;;;;;;2.80;1.40;;;;;;;-4.75;77.17;99680.88;4947182;29;20587;-60
2023/12/12 05:29:57;;;;;;;4.72;1.83;;;;;;;-4.63;77.19;99695.56;4933346;29;20032;-63
2023/12/12 05:32:23;;;;;;;10.27;1.73;;;;;;;-4.61;76.55;99701.53;4931332;29;20054;-64
2023/12/12 05:34:49;;;;;;;3.25;1.45;;;;;;;-4.56;76.93;99697.44;4939089;29;20706;-62
2023/12/12 05:37:15;;;;;;;2.63;1.30;;;;;;;-4.57;76.53;99696.56;4932456;29;20531;-61
2023/12/12 05:39:40;;;;;;;2.97;1.50;;;;;;;-4.55;76.58;99699.16;4947836;29;20043;-62
2023/12/12 05:42:07;;;;;;;6.63;1.63;;;;;;;-4.81;76.22;99666.34;4947908;29;20039;-64
2023/12/12 05:44:32;;;;;;;3.72;1.70;;;;;;;-4.58;76.05;99697.38;4935777;29;20435;-63
2023/12/12 05:46:58;;;;;;;6.45;1.70;;;;;;;-4.55;75.70;99701.69;4945528;29;20550;-63
2023/12/12 05:49:24;;;;;;;2.97;1.38;;;;;;;-4.59;76.18;99699.88;4944484;29;20047;-63
2023/12/12 05:51:50;;;;;;;3.60;2.00;;;;;;;-4.62;76.18;99697.28;4934065;29;20542;-63
2023/12/12 05:54:16;;;;;;;2.30;1.00;;;;;;;-4.95;75.75;99667.66;4931302;29;20082;-63
2023/12/12 05:56:45;;;;;;;4.57;1.73;;;;;;;-4.70;75.55;99695.38;4932914;29;20129;-63
2023/12/12 05:59:14;;;;;;;3.78;1.50;;;;;;;-4.65;76.44;99714.94;4935715;29;20039;-64
2023/12/12 06:01:41;;;;;;;3.63;1.33;;;;;;;-4.67;76.31;99709.84;4950299;28;20050;-62
2023/12/12 06:04:11;;;;;;;2.75;1.45;;;;;;;-4.72;75.83;99711.41;4947570;29;20043;-62
2023/12/12 06:06:41;;;;;;;;;;;;;;;-4.71;76.61;99706.34;4926686;29;20047;-64
2023/12/12 06:09:07;;;;;;;3.55;1.45;;;;;;;-4.75;76.35;99726.50;4948164;29;19922;-61
2023/12/12 06:11:33;;;;;;;3.40;1.65;;;;;;;-4.76;76.55;99710.44;4935441;29;20047;-64
2023/12/12 06:13:58;;;;;;;3.15;1.48;;;;;;;-4.68;76.75;99718.25;4947293;29;20039;-64
2023/12/12 06:16:24;;;;;;;2.97;1.50;;;;;;;-4.72;77.07;99714.78;4937726;29;20117;-62
2023/12/12 06:18:51;;;;;;;2.90;1.30;;;;;;;-4.78;77.36;99713.75;4947093;29;20101;-63
2023/12/12 06:21:17;;;;;;;3.33;1.33;;;;;;;-4.77;77.46;99715.47;4937235;28;20095;-62
2023/12/12 06:23:43;;;;;;;7.20;2.00;;;;;;;-4.67;79.93;99724.19;4934530;29;20075;-63
2023/12/12 06:26:09;;;;;;;2.38;0.95;;;;;;;-4.56;81.37;99713.53;4947198;29;20149;-63
2023/12/12 06:28:35;;;;;;;6.72;1.77;;;;;;;-4.55;81.91;99722.00;4946540;29;20512;-63
2023/12/12 06:31:01;;;;;;;3.10;1.58;;;;;;;-4.83;81.17;99685.75;4916059;29;20042;-62
2023/12/12 06:33:28;;;;;;;3.83;1.65;;;;;;;-4.55;82.14;99717.75;4946830;29;20467;-63
2023/12/12 06:35:55;;;;;;;5.85;1.75;;;;;;;-4.73;81.96;99689.38;4925120;28;20492;-64
2023/12/12 06:38:21;;;;;;;3.30;1.20;;;;;;;-4.57;82.15;99705.88;4944755;29;20039;-62
2023/12/12 06:40:47;;;;;;;6.45;1.40;;;;;;;-4.73;80.96;99690.25;4950649;28;20045;-63
2023/12/12 06:43:13;;;;;;;5.10;1.67;;;;;;;-4.50;80.21;99716.19;4950087;29;20395;-64
2023/12/12 06:45:39;;;;;;;4.88;2.00;;;;;;;-4.40;79.73;99712.25;4950179;29;20043;-63
2023/12/12 06:48:05;;;;;;;5.85;1.45;;;;;;;-4.37;78.82;99707.22;4950275;29;20046;-62
2023/12/12 06:50:31;;;;;;;3.63;1.60;;;;;;;-4.73;78.65;99646.28;4952805;28;20043;-63
2023/12/12 06:52:57;;;;;;;5.15;1.80;;;;;;;-4.39;78.17;99719.88;4950900;29;20702;-63
2023/12/12 06:55:23;;;;;;;4.95;1.30;;;;;;;-4.33;77.63;99711.56;4949974;29;20034;-62
2023/12/12 06:57:49;;;;;;;2.95;1.52;;;;;;;-4.31;77.08;99723.47;4950646;28;20043;-63
2023/12/12 07:00:15;;;;;;;5.43;1.42;;;;;;;-4.39;76.55;99709.72;4938355;29;20456;-62
2023/12/12 07:02:41;;;;;;;6.70;1.83;;;;;;;-4.42;76.91;99724.00;4922775;29;20074;-63
2023/12/12 07:05:08;;;;;;;3.78;1.83;;;;;;;-4.45;76.96;99711.25;4948769;29;20074;-62
2023/12/12 07:07:34;;;;;;;2.63;1.60;;;;;;;-4.40;76.90;99712.25;4949961;29;20043;-63
2023/12/12 07:09:59;;;;;;;3.25;1.88;;;;;;;-4.36;76.58;99704.75;4950795;28;20054;-62
2023/12/12 07:12:25;;;;;;;8.63;2.13;;;;;;;-4.32;76.45;99703.13;4937376;29;20076;-64
2023/12/12 07:14:51;;;;;;;2.92;1.13;;;;;;;-4.30;76.60;99701.50;4937555;29;20043;-63
2023/12/12 07:17:17;;;;;;;4.00;2.22;;;;;;;-4.32;76.48;99704.00;4951534;29;20039;-63
2023/12/12 07:19:44;;;;;;;6.40;1.85;;;;;;;-4.31;76.72;99707.38;4945975;29;20048;-63
2023/12/12 07:22:09;;;;;;;2.40;1.65;;;;;;;-4.32;76.41;99706.53;4942916;29;20490;-63
2023/12/12 07:24:35;;;;;;;7.95;2.15;;;;;;;-4.27;77.29;99712.56;4950084;29;20562;-63
2023/12/12 07:27:01;;;;;;;4.15;2.10;;;;;;;-4.25;77.09;99719.38;4935075;29;20526;-62
2023/12/12 07:29:27;;;;;;;5.07;1.80;;;;;;;-4.33;77.02;99704.81;4950138;29;20039;-63
2023/12/12 07:31:53;;;;;;;2.83;1.35;;;;;;;-4.29;76.97;99718.41;4949847;28;20053;-61
2023/12/12 07:34:18;;;;;;;2.22;1.27;;;;;;;-4.30;76.97;99716.72;4950977;29;20039;-64
2023/12/12 07:36:45;;;;;;;5.25;1.88;;;;;;;-4.28;77.01;99720.13;4950901;29;20067;-63
2023/12/12 07:39:11;;;;;;;8.18;2.30;;;;;;;-4.23;76.58;99720.25;4951220;28;20511;-62
2023/12/12 07:41:37;;;;;;;5.60;1.90;;;;;;;-4.23;76.96;99718.56;4935829;29;20046;-63
2023/12/12 07:44:03;;;;;;;5.30;1.83;;;;;;;-4.16;76.81;99717.91;4936996;29;20039;-62
2023/12/12 07:46:29;;;;;;;8.70;2.20;;;;;;;-4.04;76.82;99710.59;4941459;28;20542;-62
2023/12/12 07:48:55;;;;;;;4.18;1.38;;;;;;;-3.88;76.54;99714.38;4950182;29;20043;-62
2023/12/12 07:51:21;;;;;;;2.80;1.40;;;;;;;-4.00;75.83;99707.31;4949182;29;20054;-63
2023/12/12 07:53:47;;;;;;;5.00;1.70;;;;;;;-4.07;75.92;99723.22;4938914;29;20409;-62
2023/12/12 07:56:13;;;;;;;4.97;1.70;;;;;;;-4.24;76.09;99688.09;4917584;29;20046;-62
2023/12/12 07:58:39;;;;;;;6.47;1.73;;;;;;;-4.06;76.69;99719.84;4953823;29;20050;-64
2023/12/12 08:01:06;;;;;;;8.23;1.50;;;;;;;-4.05;76.87;99720.72;4952049;29;20705;-63
2023/12/12 08:03:32;;;;;;;3.17;1.25;;;;;;;-4.16;76.35;99709.44;4948794;29;20043;-63
2023/12/12 08:06:00;;;;;;;4.28;1.80;;;;;;;-4.15;76.68;99718.78;4938560;29;20094;-62
2023/12/12 08:08:26;;;;;;;6.22;1.70;;;;;;;-4.18;77.16;99719.53;4934848;29;20043;-63
2023/12/12 08:10:52;;;;;;;4.07;1.33;;;;;;;-4.08;77.35;99711.31;4921687;29;20047;-63
2023/12/12 08:13:18;;;;;;;2.40;1.40;;;;;;;-4.25;77.38;99699.94;4948452;29;20075;-63
2023/12/12 08:15:44;;;;;;;2.78;1.40;;;;;;;-4.05;77.40;99729.19;4939167;29;20042;-63
2023/12/12 08:18:11;;;;;;;4.95;1.98;;;;;;;-4.21;76.80;99675.47;4948731;29;20047;-65
2023/12/12 08:20:38;;;;;;;3.10;1.50;;;;;;;-4.33;76.88;99658.25;4935148;29;20035;-62
2023/12/12 08:23:04;;;;;;;3.63;1.60;;;;;;;-4.07;76.76;99704.56;4931946;29;20047;-62
2023/12/12 08:25:30;;;;;;;4.05;1.40;;;;;;;-3.83;76.48;99720.41;4935505;29;20069;-66
2023/12/12 08:27:57;;;;;;;5.80;1.65;;;;;;;-3.71;76.49;99718.13;4947674;28;20102;-64
2023/12/12 08:30:23;;;;;;;3.63;1.27;;;;;;;-3.97;75.04;99681.97;4901728;29;20102;-62
2023/12/12 08:32:49;;;;;;;11.52;2.78;;;;;;;-3.84;76.64;99708.53;4935619;29;20059;-64
2023/12/12 08:35:15;;;;;;;4.50;1.75;;;;;;;-4.04;77.74;99653.91;4948589;29;20094;-65
2023/12/12 08:37:41;;;;;;;6.93;1.90;;;;;;;-3.92;77.50;99664.31;4934172;29;20047;-62
2023/12/12 08:40:09;;;;;;;4.70;1.35;;;;;;;-3.57;77.91;99703.22;4932471;29;20039;-63
2023/12/12 08:42:36;;;;;;;6.78;1.77;;;;;;;-3.63;76.80;99690.38;4934350;29;20519;-64
2023/12/12 08:45:02;;;;;;;4.88;2.03;;;;;;;-3.50;76.53;99705.06;4935834;29;20047;-64
2023/12/12 08:47:30;;;;;;;6.40;1.30;;;;;;;-3.34;75.92;99712.19;4919346;29;20047;-64
2023/12/12 08:49:56;;;;;;;3.60;1.30;;;;;;;-3.43;75.26;99709.44;4947482;29;20043;-63
2023/12/12 08:52:22;;;;;;;6.32;1.55;;;;;;;-3.54;74.41;99704.13;4948986;29;20057;-64
2023/12/12 08:54:48;;;;;;;2.10;1.20;;;;;;;-3.60;74.05;99719.25;4947726;29;20055;-64
2023/12/12 08:57:17;;;;;;;3.35;1.20;;;;;;;-3.93;74.07;99677.84;4933926;29;20481;-63
2023/12/12 08:59:44;;;;;;;3.88;1.35;;;;;;;-3.72;75.11;99711.38;4932843;29;20543;-64
2023/12/12 09:02:10;;;;;;;4.20;1.52;;;;;;;-3.71;74.94;99694.41;4947917;29;20078;-62
2023/12/12 09:04:36;;;;;;;3.65;1.73;;;;;;;-3.60;74.71;99701.47;4947770;28;20049;-63
2023/12/12 09:07:02;;;;;;;8.05;1.70;;;;;;;-3.60;74.65;99718.38;4949475;28;20157;-62
2023/12/12 09:09:31;;;;;;;6.50;1.45;;;;;;;-3.68;74.41;99690.28;4948711;29;20105;-64
2023/12/12 09:11:58;;;;;;;7.35;2.35;;;;;;;-3.65;74.71;99690.34;4946831;29;20408;-64
2023/12/12 09:14:24;;;;;;;4.57;1.50;;;;;;;-3.55;74.31;99699.00;4946167;29;20043;-63
2023/12/12 09:16:50;;;;;;;7.10;2.03;;;;;;;-3.57;74.02;99704.09;4949343;29;20471;-64
2023/12/12 09:19:16;;;;;;;5.43;1.70;;;;;;;-3.49;74.20;99697.47;4950005;29;20079;-62
2023/12/12 09:21:42;;;;;;;6.53;1.60;;;;;;;-3.38;73.40;99689.22;4948045;29;20046;-63
2023/12/12 09:24:08;;;;;;;7.28;2.10;;;;;;;-3.63;72.66;99650.59;4918230;29;20043;-64
2023/12/12 09:26:35;;;;;;;2.63;1.33;;;;;;;-3.46;73.29;99699.25;4933905;29;20043;-63
2023/12/12 09:29:01;;;;;;;2.35;1.20;;;;;;;-3.50;73.32;99680.50;4934566;29;20201;-64
2023/12/12 09:31:28;;;;;;;10.20;1.80;;;;;;;-3.46;73.78;99699.25;4947127;29;20520;-64
2023/12/12 09:33:54;;;;;;;5.30;1.88;;;;;;;-3.36;73.52;99701.16;4917875;29;20046;-62
2023/12/12 09:36:20;;;;;;;4.53;1.67;;;;;;;-3.30;72.54;99697.88;4895505;29;20039;-63
2023/12/12 09:38:46;;;;;;;4.93;1.70;;;;;;;-3.18;72.69;99701.50;4948126;29;20039;-62
2023/12/12 09:41:17;;;;;;;3.88;1.30;;;;;;;-3.24;71.75;99696.31;4949265;28;20087;-62
2023/12/12 09:43:44;;;;;;;5.88;2.03;;;;;;;-3.28;71.33;99686.91;4935341;29;20527;-62
2023/12/12 09:46:11;;;;;;;6.95;1.35;;;;;;;-3.27;71.34;99691.16;4934139;29;20590;-63
2023/12/12 09:48:38;;;;;;;3.70;1.27;;;;;;;-3.13;71.44;99697.38;4935233;29;20042;-63
2023/12/12 09:51:06;;;;;;;6.00;1.77;;;;;;;-3.53;71.23;99637.25;4935343;29;20043;-63
2023/12/12 09:53:35;;;;;;;6.40;1.52;;;;;;;-3.20;71.15;99684.53;4917507;29;20073;-63
2023/12/12 09:56:03;;;;;;;3.67;1.00;;;;;;;-3.30;71.14;99701.28;4933412;29;20155;-62
2023/12/12 09:58:29;;;;;;;3.45;1.67;;;;;;;-3.46;70.77;99682.31;4935918;29;20058;-63
2023/12/12 10:00:55;;;;;;;5.97;2.13;;;;;;;-3.46;71.04;99689.94;4947459;29;20043;-63
2023/12/12 10:03:21;;;;;;;2.25;1.40;;;;;;;-3.42;71.17;99673.91;4934368;29;20051;-63
2023/12/12 10:05:52;;;;;;;4.05;1.38;;;;;;;-3.28;71.43;99694.53;4916355;29;20050;-63
2023/12/12 10:08:19;;;;;;;6.75;1.65;;;;;;;-3.38;70.88;99687.53;4934003;29;20097;-63
2023/12/12 10:10:44;;;;;;;5.20;1.85;;;;;;;-3.43;70.41;99689.13;4947997;28;20047;-64
2023/12/12 10:13:11;;;;;;;3.67;1.95;;;;;;;-3.54;70.96;99678.72;4951692;28;20044;-64
2023/12/12 10:15:37;;;;;;;6.53;1.35;;;;;;;-3.52;70.83;99673.69;4955278;28;20053;-64
2023/12/12 10:18:03;;;;;;;6.13;1.50;;;;;;;-3.49;71.40;99666.97;4951782;29;20688;-66
2023/12/12 10:20:30;;;;;;;4.20;2.30;;;;;;;-3.46;70.95;99686.53;4952002;29;20055;-63
2023/12/12 10:23:03;;;;;;;11.25;1.73;;;;;;;-3.52;70.95;99682.16;4938678;29;20050;-64
2023/12/12 10:25:30;;;;;;;2.38;1.38;;;;;;;-3.45;70.94;99689.09;4950671;29;20074;-64
2023/12/12 10:27:57;;;;;;;3.83;1.30;;;;;;;-3.71;70.56;99649.56;4938302;29;20170;-65
2023/12/12 10:30:23;;;;;;;2.70;1.35;;;;;;;-3.57;71.22;99686.31;4950655;29;20142;-64
2023/12/12 10:32:53;;;;;;;2.95;1.27;;;;;;;-3.65;70.92;99682.72;4938720;29;20062;-63
2023/12/12 10:35:19;;;;;;;;;;;;;;;-3.80;71.25;99690.00;4950950;29;20503;-66
2023/12/12 10:37:45;;;;;;;2.33;1.02;;;;;;;-4.10;71.53;99639.38;4920179;29;19922;-64
2023/12/12 10:40:15;;;;;;;4.75;1.42;;;;;;;-3.87;71.96;99683.03;4935396;29;21838;-64
2023/12/12 10:42:44;;;;;;;4.25;1.17;;;;;;;-3.92;71.71;99688.03;4928687;29;20043;-63
2023/12/12 10:45:14;;;;;;;4.03;1.33;;;;;;;-3.92;72.18;99675.31;4951895;29;20054;-62
2023/12/12 10:47:50;;;;;;;6.93;1.63;;;;;;;-3.94;72.25;99674.47;4952048;29;20907;-63
2023/12/12 10:50:17;;;;;;;10.45;2.10;;;;;;;-3.94;72.18;99678.69;4952541;29;20051;-64
2023/12/12 10:52:48;;;;;;;3.17;1.50;;;;;;;-3.80;72.23;99669.69;4950584;29;20435;-66
2023/12/12 10:55:16;;;;;;;2.83;1.00;;;;;;;-4.00;71.90;99638.75;4923357;29;20039;-62
2023/12/12 10:57:44;;;;;;;2.80;1.40;;;;;;;-3.81;71.80;99674.72;4921207;28;20053;-66
2023/12/12 11:00:20;;;;;;;9.55;1.42;;;;;;;-3.73;71.98;99674.09;4935090;29;20235;-63
2023/12/12 11:02:47;;;;;;;2.50;1.27;;;;;;;-3.98;71.83;99644.72;4950159;29;20027;-65
2023/12/12 11:05:14;;;;;;;3.58;1.73;;;;;;;-3.78;71.85;99674.81;4933991;29;20040;-65
2023/12/12 11:07:43;;;;;;;6.07;1.48;;;;;;;-3.86;71.89;99678.00;4950669;28;20368;-61
2023/12/12 11:10:14;;;;;;;2.07;1.07;;;;;;;-3.74;72.52;99691.81;4932704;29;20511;-63
2023/12/12 11:13:07;;;;;;;13.98;1.45;;;;;;;-3.86;72.17;99693.25;4936907;29;20295;-63
2023/12/12 11:15:34;;;;;;;3.67;1.60;;;;;;;-4.20;72.08;99644.22;4914108;29;20404;-64
2023/12/12 11:18:00;;;;;;;4.65;1.45;;;;;;;-3.99;71.79;99678.56;4940719;29;20123;-63
2023/12/12 11:20:26;;;;;;;5.95;1.63;;;;;;;-3.98;72.29;99679.44;4951560;29;20042;-64
2023/12/12 11:22:52;;;;;;;4.05;1.67;;;;;;;-4.08;72.86;99675.78;4949350;28;20046;-63
2023/12/12 11:25:22;;;;;;;5.05;1.45;;;;;;;-4.11;73.53;99690.97;4952121;28;20053;-64
2023/12/12 11:27:52;;;;;;;4.45;1.63;;;;;;;-4.00;73.81;99679.38;4931832;29;20050;-64
2023/12/12 11:30:20;;;;;;;5.47;1.85;;;;;;;-4.36;73.87;99604.91;4949412;29;20054;-66